Time,TemperatureF,DewpointF,PressureIn,WindDirection,WindDirectionDegrees,WindSpeedMPH,WindSpeedGustMPH,Humidity,HourlyPrecipIn,Conditions,Clouds,dailyrainin,SoftwareType,DateUTC
2013-09-24 00:02:00,54.1,49.5,30.07,ENE,63,0.0,3.0,84,0.00,,,0.00,meteohub,2013-09-24 05:02:00,
2013-09-24 00:07:00,54.0,49.3,30.07,ENE,63,0.0,3.0,84,0.00,,,0.00,meteohub,2013-09-24 05:07:00,
2013-09-24 00:12:00,54.0,49.6,30.07,ENE,63,0.0,0.0,85,0.00,,,0.00,meteohub,2013-09-24 05:12:00,
2013-09-24 00:17:00,53.8,49.5,30.07,ENE,63,0.0,0.0,85,0.00,,,0.00,meteohub,2013-09-24 05:17:00,
2013-09-24 00:22:00,53.6,49.3,30.07,ENE,63,0.0,0.0,85,0.00,,,0.00,meteohub,2013-09-24 05:22:00,
2013-09-24 00:27:00,53.4,49.1,30.07,ENE,63,0.0,1.0,85,0.00,,,0.00,meteohub,2013-09-24 05:27:00,
2013-09-24 00:32:00,53.2,49.1,30.07,ENE,63,0.0,1.0,86,0.00,,,0.00,meteohub,2013-09-24 05:32:00,
2013-09-24 00:37:00,53.1,48.9,30.07,ENE,63,0.0,1.0,86,0.00,,,0.00,meteohub,2013-09-24 05:37:00,
2013-09-24 00:42:00,53.1,48.9,30.07,ENE,63,0.0,0.0,86,0.00,,,0.00,meteohub,2013-09-24 05:42:00,
2013-09-24 00:47:00,52.9,49.1,30.07,ENE,63,0.0,0.0,87,0.00,,,0.00,meteohub,2013-09-24 05:47:00,
2013-09-24 00:52:00,52.9,49.1,30.07,ENE,63,0.0,0.0,87,0.00,,,0.00,meteohub,2013-09-24 05:52:00,
2013-09-24 01:02:00,52.5,48.7,30.07,ENE,63,0.0,0.0,87,0.00,,,0.00,meteohub,2013-09-24 06:02:00,
2013-09-24 01:07:00,52.3,48.6,30.07,ENE,63,0.0,0.0,87,0.00,,,0.00,meteohub,2013-09-24 06:07:00,
2013-09-24 01:12:00,52.3,48.9,30.07,ENE,63,0.0,0.0,88,0.00,,,0.00,meteohub,2013-09-24 06:12:00,
2013-09-24 01:17:00,52.3,48.9,30.07,ENE,63,0.0,0.0,88,0.00,,,0.00,meteohub,2013-09-24 06:17:00,
2013-09-24 01:22:00,52.2,48.7,30.07,ENE,63,0.0,0.0,88,0.00,,,0.00,meteohub,2013-09-24 06:22:00,
2013-09-24 01:27:00,52.2,48.7,30.08,ENE,63,0.0,0.0,88,0.00,,,0.00,meteohub,2013-09-24 06:27:00,
2013-09-24 01:32:00,52.2,48.7,30.08,ENE,63,0.0,0.0,88,0.00,,,0.00,meteohub,2013-09-24 06:32:00,
2013-09-24 01:37:00,52.2,48.7,30.08,ENE,63,0.0,0.0,88,0.00,,,0.00,meteohub,2013-09-24 06:37:00,
2013-09-24 01:42:00,52.2,48.7,30.08,ENE,63,0.0,0.0,88,0.00,,,0.00,meteohub,2013-09-24 06:42:00,
2013-09-24 01:47:00,52.0,48.6,30.08,ENE,63,0.0,0.0,88,0.00,,,0.00,meteohub,2013-09-24 06:47:00,
2013-09-24 01:52:00,51.8,48.7,30.08,ENE,63,0.0,0.0,89,0.00,,,0.00,meteohub,2013-09-24 06:52:00,
2013-09-24 01:57:00,51.8,48.7,30.08,ENE,63,0.0,0.0,89,0.00,,,0.00,meteohub,2013-09-24 06:57:00,
2013-09-24 02:02:00,51.8,48.7,30.08,ENE,63,0.0,0.0,89,0.00,,,0.00,meteohub,2013-09-24 07:02:00,
2013-09-24 02:07:00,51.6,48.6,30.08,ENE,63,0.0,0.0,89,0.00,,,0.00,meteohub,2013-09-24 07:07:00,
2013-09-24 02:12:00,51.6,48.6,30.08,ENE,63,0.0,0.0,89,0.00,,,0.00,meteohub,2013-09-24 07:12:00,
2013-09-24 02:17:00,51.4,48.6,30.08,ENE,63,0.0,0.0,90,0.00,,,0.00,meteohub,2013-09-24 07:17:00,
2013-09-24 02:22:00,51.4,48.6,30.08,ENE,63,0.0,0.0,90,0.00,,,0.00,meteohub,2013-09-24 07:22:00,
2013-09-24 02:27:00,51.3,48.4,30.08,ENE,63,0.0,0.0,90,0.00,,,0.00,meteohub,2013-09-24 07:27:00,
2013-09-24 02:32:00,51.3,48.4,30.08,ENE,63,0.0,0.0,90,0.00,,,0.00,meteohub,2013-09-24 07:32:00,
2013-09-24 02:37:00,51.1,48.2,30.08,ENE,63,0.0,0.0,90,0.00,,,0.00,meteohub,2013-09-24 07:37:00,
2013-09-24 02:42:00,51.1,48.2,30.08,ENE,63,0.0,0.0,90,0.00,,,0.00,meteohub,2013-09-24 07:42:00,
2013-09-24 02:47:00,51.1,48.2,30.08,ENE,63,0.0,0.0,90,0.00,,,0.00,meteohub,2013-09-24 07:47:00,
2013-09-24 02:52:00,51.1,48.2,30.08,ENE,63,0.0,0.0,90,0.00,,,0.00,meteohub,2013-09-24 07:52:00,
2013-09-24 02:57:00,50.9,48.4,30.08,ENE,63,0.0,0.0,91,0.00,,,0.00,meteohub,2013-09-24 07:57:00,
2013-09-24 03:02:00,50.9,48.4,30.08,ENE,63,0.0,0.0,91,0.00,,,0.00,meteohub,2013-09-24 08:02:00,
2013-09-24 03:07:00,50.7,48.2,30.07,ENE,63,0.0,0.0,91,0.00,,,0.00,meteohub,2013-09-24 08:07:00,
2013-09-24 03:12:00,50.7,48.2,30.07,ENE,63,0.0,0.0,91,0.00,,,0.00,meteohub,2013-09-24 08:12:00,
2013-09-24 03:17:00,50.5,48.0,30.07,ENE,63,0.0,0.0,91,0.00,,,0.00,meteohub,2013-09-24 08:17:00,
2013-09-24 03:22:00,50.4,47.8,30.07,ENE,63,0.0,0.0,91,0.00,,,0.00,meteohub,2013-09-24 08:22:00,
2013-09-24 03:27:00,50.4,47.8,30.07,ENE,63,0.0,0.0,91,0.00,,,0.00,meteohub,2013-09-24 08:27:00,
2013-09-24 03:32:00,50.2,47.7,30.07,ENE,63,0.0,0.0,91,0.00,,,0.00,meteohub,2013-09-24 08:32:00,
2013-09-24 03:37:00,49.8,47.3,30.07,ENE,63,0.0,0.0,91,0.00,,,0.00,meteohub,2013-09-24 08:37:00,
2013-09-24 03:42:00,49.8,47.7,30.07,ENE,63,0.0,0.0,92,0.00,,,0.00,meteohub,2013-09-24 08:42:00,
2013-09-24 03:47:00,49.8,47.7,30.07,ENE,63,0.0,0.0,92,0.00,,,0.00,meteohub,2013-09-24 08:47:00,
2013-09-24 03:52:00,49.8,47.7,30.07,ENE,63,0.0,0.0,92,0.00,,,0.00,meteohub,2013-09-24 08:52:00,
2013-09-24 04:02:00,49.6,47.5,30.07,ENE,63,0.0,0.0,92,0.00,,,0.00,meteohub,2013-09-24 09:02:00,
2013-09-24 04:07:00,49.6,47.5,30.07,ENE,63,0.0,0.0,92,0.00,,,0.00,meteohub,2013-09-24 09:07:00,
2013-09-24 04:12:00,49.5,47.5,30.07,ENE,63,0.0,0.0,93,0.00,,,0.00,meteohub,2013-09-24 09:12:00,
2013-09-24 04:17:00,49.5,47.5,30.06,ENE,63,0.0,0.0,93,0.00,,,0.00,meteohub,2013-09-24 09:17:00,
2013-09-24 04:22:00,49.3,47.3,30.06,ENE,63,0.0,0.0,93,0.00,,,0.00,meteohub,2013-09-24 09:22:00,
2013-09-24 04:27:00,48.9,46.9,30.06,ENE,63,0.0,0.0,93,0.00,,,0.00,meteohub,2013-09-24 09:27:00,
2013-09-24 04:32:00,48.9,46.9,30.06,ENE,63,0.0,0.0,93,0.00,,,0.00,meteohub,2013-09-24 09:32:00,
2013-09-24 04:37:00,48.7,46.8,30.06,ENE,63,0.0,0.0,93,0.00,,,0.00,meteohub,2013-09-24 09:37:00,
2013-09-24 04:42:00,48.6,46.6,30.06,ENE,63,0.0,0.0,93,0.00,,,0.00,meteohub,2013-09-24 09:42:00,
2013-09-24 04:47:00,48.6,46.9,30.06,ENE,63,0.0,0.0,94,0.00,,,0.00,meteohub,2013-09-24 09:47:00,
2013-09-24 04:52:00,48.6,46.9,30.06,ENE,63,0.0,0.0,94,0.00,,,0.00,meteohub,2013-09-24 09:52:00,
2013-09-24 04:57:00,48.6,46.9,30.06,ENE,63,0.0,0.0,94,0.00,,,0.00,meteohub,2013-09-24 09:57:00,
2013-09-24 05:02:00,48.6,46.9,30.06,ENE,63,0.0,0.0,94,0.00,,,0.00,meteohub,2013-09-24 10:02:00,
2013-09-24 05:07:00,48.4,46.8,30.06,ENE,63,0.0,0.0,94,0.00,,,0.00,meteohub,2013-09-24 10:07:00,
2013-09-24 05:12:00,48.2,46.6,30.06,ENE,63,0.0,0.0,94,0.00,,,0.00,meteohub,2013-09-24 10:12:00,
2013-09-24 05:17:00,48.0,46.4,30.06,ENE,63,0.0,0.0,94,0.00,,,0.00,meteohub,2013-09-24 10:17:00,
2013-09-24 05:22:00,48.0,46.4,30.06,ENE,63,0.0,0.0,94,0.00,,,0.00,meteohub,2013-09-24 10:22:00,
2013-09-24 05:27:00,48.0,46.4,30.06,ENE,63,0.0,0.0,94,0.00,,,0.00,meteohub,2013-09-24 10:27:00,
2013-09-24 05:32:00,48.0,46.6,30.06,ENE,63,0.0,0.0,95,0.00,,,0.00,meteohub,2013-09-24 10:32:00,
2013-09-24 05:37:00,48.0,46.6,30.06,ENE,63,0.0,0.0,95,0.00,,,0.00,meteohub,2013-09-24 10:37:00,
2013-09-24 05:42:00,48.0,46.6,30.06,ENE,63,0.0,0.0,95,0.00,,,0.00,meteohub,2013-09-24 10:42:00,
2013-09-24 05:47:00,47.8,46.4,30.06,ENE,63,0.0,0.0,95,0.00,,,0.00,meteohub,2013-09-24 10:47:00,
2013-09-24 05:52:00,47.7,46.0,30.06,ENE,63,0.0,0.0,94,0.00,,,0.00,meteohub,2013-09-24 10:52:00,
2013-09-24 05:57:00,47.7,46.2,30.06,ENE,63,0.0,0.0,95,0.00,,,0.00,meteohub,2013-09-24 10:57:00,
2013-09-24 06:02:00,47.8,46.4,30.06,ENE,63,0.0,0.0,95,0.00,,,0.00,meteohub,2013-09-24 11:02:00,
2013-09-24 06:07:00,47.8,46.4,30.06,ENE,63,0.0,0.0,95,0.00,,,0.00,meteohub,2013-09-24 11:07:00,
2013-09-24 06:12:00,47.8,46.4,30.06,ENE,63,0.0,0.0,95,0.00,,,0.00,meteohub,2013-09-24 11:12:00,
2013-09-24 06:17:00,48.0,46.6,30.06,ENE,63,0.0,0.0,95,0.00,,,0.00,meteohub,2013-09-24 11:17:00,
2013-09-24 06:22:00,48.0,46.6,30.06,ENE,63,0.0,0.0,95,0.00,,,0.00,meteohub,2013-09-24 11:22:00,
2013-09-24 06:27:00,48.0,46.6,30.06,ENE,63,0.0,0.0,95,0.00,,,0.00,meteohub,2013-09-24 11:27:00,
2013-09-24 06:32:00,48.0,46.6,30.06,ENE,63,0.0,0.0,95,0.00,,,0.00,meteohub,2013-09-24 11:32:00,
2013-09-24 06:37:00,48.0,46.6,30.06,ENE,63,0.0,0.0,95,0.00,,,0.00,meteohub,2013-09-24 11:37:00,
2013-09-24 06:42:00,48.0,46.6,30.06,ENE,63,0.0,0.0,95,0.00,,,0.00,meteohub,2013-09-24 11:42:00,
2013-09-24 06:47:00,47.8,46.4,30.06,ENE,63,0.0,0.0,95,0.00,,,0.00,meteohub,2013-09-24 11:47:00,
2013-09-24 06:52:00,47.8,46.4,30.06,ENE,63,0.0,0.0,95,0.00,,,0.00,meteohub,2013-09-24 11:52:00,
2013-09-24 06:57:00,47.8,46.8,30.06,ENE,63,0.0,0.0,96,0.01,,,0.01,meteohub,2013-09-24 11:57:00,
2013-09-24 07:02:00,47.8,46.4,30.07,ENE,63,0.0,0.0,95,0.01,,,0.01,meteohub,2013-09-24 12:02:00,
2013-09-24 07:07:00,47.7,46.2,30.06,ENE,63,0.0,0.0,95,0.01,,,0.01,meteohub,2013-09-24 12:07:00,
2013-09-24 07:12:00,47.5,46.0,30.06,ENE,63,0.0,0.0,95,0.01,,,0.01,meteohub,2013-09-24 12:12:00,
2013-09-24 07:17:00,47.5,46.4,30.07,ENE,63,0.0,0.0,96,0.01,,,0.01,meteohub,2013-09-24 12:17:00,
2013-09-24 07:22:00,47.8,46.8,30.07,ENE,63,0.0,0.0,96,0.01,,,0.01,meteohub,2013-09-24 12:22:00,
2013-09-24 07:27:00,48.0,46.9,30.07,ENE,63,0.0,0.0,96,0.01,,,0.01,meteohub,2013-09-24 12:27:00,
2013-09-24 07:32:00,48.2,47.1,30.07,ENE,63,0.0,0.0,96,0.01,,,0.01,meteohub,2013-09-24 12:32:00,
2013-09-24 07:37:00,48.6,47.5,30.07,ENE,63,0.0,0.0,96,0.01,,,0.01,meteohub,2013-09-24 12:37:00,
2013-09-24 07:42:00,48.9,47.8,30.07,ENE,63,0.0,0.0,96,0.01,,,0.01,meteohub,2013-09-24 12:42:00,
2013-09-24 07:47:00,49.3,48.2,30.07,ENE,63,0.0,0.0,96,0.01,,,0.01,meteohub,2013-09-24 12:47:00,
2013-09-24 07:52:00,49.3,48.2,30.07,ENE,63,0.0,0.0,96,0.01,,,0.01,meteohub,2013-09-24 12:52:00,
2013-09-24 07:57:00,49.5,48.4,30.07,ENE,63,0.0,0.0,96,0.00,,,0.01,meteohub,2013-09-24 12:57:00,
2013-09-24 08:02:00,49.8,48.7,30.07,ENE,63,0.0,0.0,96,0.00,,,0.01,meteohub,2013-09-24 13:02:00,
2013-09-24 08:07:00,50.2,49.1,30.07,ENE,63,0.0,0.0,96,0.00,,,0.01,meteohub,2013-09-24 13:07:00,
2013-09-24 08:12:00,50.2,49.1,30.07,ENE,63,0.0,0.0,96,0.00,,,0.01,meteohub,2013-09-24 13:12:00,
2013-09-24 08:17:00,50.4,49.3,30.07,ENE,63,0.0,0.0,96,0.00,,,0.01,meteohub,2013-09-24 13:17:00,
2013-09-24 08:22:00,50.7,49.6,30.06,ENE,63,0.0,0.0,96,0.00,,,0.01,meteohub,2013-09-24 13:22:00,
2013-09-24 08:27:00,51.1,50.0,30.07,ENE,63,0.0,0.0,96,0.00,,,0.01,meteohub,2013-09-24 13:27:00,
2013-09-24 08:32:00,51.3,50.2,30.07,ENE,63,0.0,4.0,96,0.00,,,0.01,meteohub,2013-09-24 13:32:00,
2013-09-24 08:37:00,52.0,50.9,30.07,ENE,63,0.0,4.0,96,0.00,,,0.01,meteohub,2013-09-24 13:37:00,
2013-09-24 09:12:00,55.2,53.2,30.06,East,93,0.0,5.0,93,0.00,,,0.01,meteohub,2013-09-24 14:12:00,
2013-09-24 09:17:00,55.9,53.4,30.06,East,82,0.0,5.0,91,0.00,,,0.01,meteohub,2013-09-24 14:17:00,
2013-09-24 09:22:00,56.3,53.1,30.06,East,80,0.0,5.0,89,0.00,,,0.01,meteohub,2013-09-24 14:22:00,
2013-09-24 09:27:00,56.8,53.1,30.06,ENE,57,0.0,2.0,87,0.00,,,0.01,meteohub,2013-09-24 14:27:00,
2013-09-24 09:32:00,57.0,52.2,30.06,ENE,60,0.0,4.0,84,0.00,,,0.01,meteohub,2013-09-24 14:32:00,
2013-09-24 09:37:00,57.4,52.5,30.06,ENE,60,0.0,4.0,84,0.00,,,0.01,meteohub,2013-09-24 14:37:00,
2013-09-24 09:42:00,57.9,52.7,30.06,ENE,59,0.0,4.0,83,0.00,,,0.01,meteohub,2013-09-24 14:42:00,
2013-09-24 09:47:00,58.3,52.9,30.06,ENE,62,0.0,4.0,82,0.00,,,0.01,meteohub,2013-09-24 14:47:00,
2013-09-24 09:57:00,59.2,53.1,30.06,ENE,61,0.0,0.0,80,0.00,,,0.01,meteohub,2013-09-24 14:57:00,
2013-09-24 10:02:00,59.5,53.4,30.06,ENE,61,0.0,0.0,80,0.00,,,0.01,meteohub,2013-09-24 15:02:00,
2013-09-24 10:07:00,60.1,53.6,30.06,ENE,61,0.0,0.0,79,0.00,,,0.01,meteohub,2013-09-24 15:07:00,
2013-09-24 10:12:00,60.3,53.4,30.06,ENE,61,0.0,0.0,78,0.00,,,0.01,meteohub,2013-09-24 15:12:00,
2013-09-24 10:17:00,60.6,53.8,30.07,ENE,73,0.0,0.0,78,0.00,,,0.01,meteohub,2013-09-24 15:17:00,
2013-09-24 10:22:00,61.2,54.0,30.07,East,101,0.0,0.0,77,0.00,,,0.01,meteohub,2013-09-24 15:22:00,
2013-09-24 10:27:00,61.5,54.3,30.07,ENE,78,0.0,0.0,77,0.00,,,0.01,meteohub,2013-09-24 15:27:00,
2013-09-24 10:32:00,61.9,54.7,30.07,ENE,78,0.0,0.0,77,0.00,,,0.01,meteohub,2013-09-24 15:32:00,
2013-09-24 10:37:00,62.2,54.5,30.07,ENE,78,0.0,0.0,76,0.00,,,0.01,meteohub,2013-09-24 15:37:00,
2013-09-24 10:42:00,62.4,54.7,30.07,ENE,78,0.0,0.0,76,0.00,,,0.01,meteohub,2013-09-24 15:42:00,
2013-09-24 10:52:00,63.3,54.9,30.07,NE,46,0.0,0.0,74,0.00,,,0.01,meteohub,2013-09-24 15:52:00,
2013-09-24 11:02:00,63.7,54.9,30.06,ENE,62,0.0,0.0,73,0.00,,,0.01,meteohub,2013-09-24 16:02:00,
2013-09-24 11:07:00,64.0,55.2,30.06,ENE,62,0.0,0.0,73,0.00,,,0.01,meteohub,2013-09-24 16:07:00,
2013-09-24 11:12:00,64.6,55.4,30.07,ENE,61,0.0,0.0,72,0.00,,,0.01,meteohub,2013-09-24 16:12:00,
2013-09-24 11:17:00,64.8,55.9,30.06,ENE,61,0.0,0.0,73,0.00,,,0.01,meteohub,2013-09-24 16:17:00,
2013-09-24 11:22:00,65.1,55.9,30.06,ENE,60,0.0,0.0,72,0.00,,,0.01,meteohub,2013-09-24 16:22:00,
2013-09-24 11:27:00,65.5,55.0,30.06,ENE,57,0.0,0.0,69,0.00,,,0.01,meteohub,2013-09-24 16:27:00,
2013-09-24 11:32:00,65.7,55.2,30.06,ENE,58,0.0,0.0,69,0.00,,,0.01,meteohub,2013-09-24 16:32:00,
2013-09-24 11:37:00,65.8,55.4,30.06,ESE,117,0.0,0.0,69,0.00,,,0.01,meteohub,2013-09-24 16:37:00,
2013-09-24 11:42:00,66.0,55.6,30.06,ESE,117,0.0,8.0,69,0.00,,,0.01,meteohub,2013-09-24 16:42:00,
2013-09-24 11:47:00,66.2,55.4,30.06,ENE,65,0.0,8.0,68,0.00,,,0.01,meteohub,2013-09-24 16:47:00,
2013-09-24 11:52:00,66.4,55.6,30.06,ENE,62,0.0,4.0,68,0.00,,,0.01,meteohub,2013-09-24 16:52:00,
2013-09-24 11:57:00,66.6,55.6,30.06,ENE,63,0.0,1.0,68,0.00,,,0.01,meteohub,2013-09-24 16:57:00,
2013-09-24 12:07:00,67.5,55.8,30.05,NNE,28,0.0,1.0,66,0.00,,,0.01,meteohub,2013-09-24 17:07:00,
2013-09-24 12:12:00,67.3,55.6,30.05,NNE,25,0.0,7.0,66,0.00,,,0.01,meteohub,2013-09-24 17:12:00,
2013-09-24 12:17:00,66.9,55.6,30.05,ENE,59,0.0,8.0,67,0.00,,,0.01,meteohub,2013-09-24 17:17:00,
2013-09-24 12:22:00,66.9,55.6,30.05,ENE,59,0.0,8.0,67,0.00,,,0.01,meteohub,2013-09-24 17:22:00,
2013-09-24 12:27:00,67.1,55.8,30.05,ENE,59,0.0,5.0,67,0.00,,,0.01,meteohub,2013-09-24 17:27:00,
2013-09-24 12:32:00,66.9,56.5,30.05,NNE,23,0.0,5.0,69,0.00,,,0.01,meteohub,2013-09-24 17:32:00,
2013-09-24 12:37:00,67.5,56.1,30.04,NNE,25,0.0,9.0,67,0.00,,,0.01,meteohub,2013-09-24 17:37:00,
2013-09-24 12:42:00,67.5,57.0,30.04,NNE,25,5.0,9.0,69,0.00,,,0.01,meteohub,2013-09-24 17:42:00,
2013-09-24 12:47:00,67.1,55.4,30.04,NNE,21,0.0,9.0,66,0.00,,,0.01,meteohub,2013-09-24 17:47:00,
2013-09-24 12:52:00,66.9,56.5,30.04,NNE,15,8.0,8.0,69,0.00,,,0.01,meteohub,2013-09-24 17:52:00,
2013-09-24 12:57:00,66.9,55.9,30.04,ENE,66,0.0,11.0,68,0.00,,,0.01,meteohub,2013-09-24 17:57:00,
2013-09-24 13:02:00,67.5,56.5,30.04,NNE,32,3.0,11.0,68,0.00,,,0.01,meteohub,2013-09-24 18:02:00,
2013-09-24 13:07:00,67.8,55.6,30.04,East,79,0.0,11.0,65,0.00,,,0.01,meteohub,2013-09-24 18:07:00,
2013-09-24 13:12:00,68.4,56.5,30.04,NE,38,0.0,9.0,66,0.00,,,0.01,meteohub,2013-09-24 18:12:00,
2013-09-24 13:17:00,67.8,54.7,30.04,ESE,116,5.0,9.0,63,0.00,,,0.01,meteohub,2013-09-24 18:17:00,
2013-09-24 13:27:00,68.2,55.9,30.03,ENE,66,0.0,9.0,65,0.00,,,0.01,meteohub,2013-09-24 18:27:00,
2013-09-24 13:32:00,68.5,55.4,30.03,East,90,6.0,9.0,63,0.00,,,0.01,meteohub,2013-09-24 18:32:00,
2013-09-24 13:37:00,68.7,54.7,30.03,NNE,30,11.0,12.0,61,0.00,,,0.01,meteohub,2013-09-24 18:37:00,
2013-09-24 13:42:00,68.5,54.5,30.02,ENE,78,0.0,13.0,61,0.00,,,0.01,meteohub,2013-09-24 18:42:00,
2013-09-24 13:47:00,68.4,54.3,30.02,ENE,62,5.0,13.0,61,0.00,,,0.01,meteohub,2013-09-24 18:47:00,
2013-09-24 13:52:00,68.5,54.5,30.02,NE,34,5.0,13.0,61,0.00,,,0.01,meteohub,2013-09-24 18:52:00,
2013-09-24 13:57:00,68.5,54.1,30.02,NNE,15,7.0,12.0,60,0.00,,,0.01,meteohub,2013-09-24 18:57:00,
2013-09-24 14:02:00,68.7,53.8,30.02,NE,54,5.0,12.0,59,0.00,,,0.01,meteohub,2013-09-24 19:02:00,
2013-09-24 14:07:00,68.5,54.1,30.01,NE,36,0.0,12.0,60,0.00,,,0.01,meteohub,2013-09-24 19:07:00,
2013-09-24 14:12:00,68.7,55.2,30.01,NNE,15,7.0,12.0,62,0.00,,,0.01,meteohub,2013-09-24 19:12:00,
2013-09-24 14:17:00,69.1,55.0,30.01,NNE,23,2.0,14.0,61,0.00,,,0.01,meteohub,2013-09-24 19:17:00,
2013-09-24 14:22:00,69.3,55.2,30.00,NE,45,6.0,14.0,61,0.00,,,0.01,meteohub,2013-09-24 19:22:00,
2013-09-24 14:27:00,69.1,54.7,30.00,East,85,0.0,17.0,60,0.00,,,0.01,meteohub,2013-09-24 19:27:00,
2013-09-24 14:32:00,68.9,54.5,30.00,NNE,28,5.0,17.0,60,0.00,,,0.01,meteohub,2013-09-24 19:32:00,
2013-09-24 14:37:00,69.3,55.2,29.99,NNE,24,11.0,17.0,61,0.00,,,0.01,meteohub,2013-09-24 19:37:00,
2013-09-24 14:42:00,69.3,54.9,30.00,NE,53,0.0,14.0,60,0.00,,,0.01,meteohub,2013-09-24 19:42:00,
2013-09-24 14:47:00,69.4,54.9,30.00,East,94,0.0,14.0,60,0.00,,,0.01,meteohub,2013-09-24 19:47:00,
2013-09-24 14:52:00,69.4,54.9,30.00,NE,49,0.0,14.0,60,0.00,,,0.01,meteohub,2013-09-24 19:52:00,
2013-09-24 14:57:00,69.4,54.9,30.00,NE,36,1.0,10.0,60,0.00,,,0.01,meteohub,2013-09-24 19:57:00,
2013-09-24 15:02:00,69.6,55.0,30.00,NE,38,0.0,11.0,60,0.00,,,0.01,meteohub,2013-09-24 20:02:00,
2013-09-24 15:07:00,69.6,55.0,30.00,NE,42,0.0,11.0,60,0.00,,,0.01,meteohub,2013-09-24 20:07:00,
2013-09-24 15:12:00,69.6,55.0,30.00,NNE,14,0.0,11.0,60,0.00,,,0.01,meteohub,2013-09-24 20:12:00,
2013-09-24 15:17:00,70.0,55.9,30.00,East,99,0.0,7.0,61,0.00,,,0.01,meteohub,2013-09-24 20:17:00,
2013-09-24 15:22:00,70.2,55.6,29.99,East,90,0.0,7.0,60,0.00,,,0.01,meteohub,2013-09-24 20:22:00,
2013-09-24 15:27:00,70.2,55.2,29.99,ENE,58,0.0,0.0,59,0.00,,,0.01,meteohub,2013-09-24 20:27:00,
2013-09-24 15:32:00,70.2,55.2,29.99,NE,53,0.0,6.0,59,0.00,,,0.01,meteohub,2013-09-24 20:32:00,
2013-09-24 15:37:00,70.3,55.4,29.99,ENE,70,0.0,8.0,59,0.00,,,0.01,meteohub,2013-09-24 20:37:00,
2013-09-24 15:42:00,70.3,55.8,29.99,North,0,0.0,8.0,60,0.00,,,0.01,meteohub,2013-09-24 20:42:00,
2013-09-24 15:47:00,70.3,55.4,29.99,NNE,26,0.0,8.0,59,0.00,,,0.01,meteohub,2013-09-24 20:47:00,
2013-09-24 15:52:00,70.5,55.9,29.99,ENE,67,0.0,7.0,60,0.00,,,0.01,meteohub,2013-09-24 20:52:00,
2013-09-24 15:57:00,70.5,55.0,29.99,NE,35,4.0,9.0,58,0.00,,,0.01,meteohub,2013-09-24 20:57:00,
2013-09-24 16:07:00,71.1,55.9,29.98,NE,35,0.0,10.0,59,0.00,,,0.01,meteohub,2013-09-24 21:07:00,
2013-09-24 16:12:00,71.1,54.5,29.98,ENE,57,0.0,10.0,56,0.00,,,0.01,meteohub,2013-09-24 21:12:00,
2013-09-24 16:17:00,71.1,54.1,29.98,East,92,0.0,9.0,55,0.00,,,0.01,meteohub,2013-09-24 21:17:00,
2013-09-24 16:22:00,71.1,54.1,29.99,NE,42,0.0,12.0,55,0.00,,,0.01,meteohub,2013-09-24 21:22:00,
2013-09-24 16:27:00,71.1,53.6,29.99,East,85,0.0,12.0,54,0.00,,,0.01,meteohub,2013-09-24 21:27:00,
2013-09-24 16:32:00,71.1,55.0,29.99,NE,44,6.0,11.0,57,0.00,,,0.01,meteohub,2013-09-24 21:32:00,
2013-09-24 16:37:00,71.1,54.5,29.99,East,82,0.0,11.0,56,0.00,,,0.01,meteohub,2013-09-24 21:37:00,
2013-09-24 16:47:00,71.1,54.5,29.99,East,91,0.0,10.0,56,0.00,,,0.01,meteohub,2013-09-24 21:47:00,
2013-09-24 16:52:00,71.2,54.3,29.99,ENE,64,0.0,6.0,55,0.00,,,0.01,meteohub,2013-09-24 21:52:00,
2013-09-24 16:57:00,71.2,54.7,29.99,East,84,0.0,0.0,56,0.00,,,0.01,meteohub,2013-09-24 21:57:00,
2013-09-24 17:02:00,71.4,54.5,29.99,East,84,0.0,0.0,55,0.00,,,0.01,meteohub,2013-09-24 22:02:00,
2013-09-24 17:07:00,71.2,53.8,29.99,East,93,0.0,0.0,54,0.00,,,0.01,meteohub,2013-09-24 22:07:00,
2013-09-24 17:12:00,71.2,53.2,29.99,ESE,109,0.0,5.0,53,0.00,,,0.01,meteohub,2013-09-24 22:12:00,
2013-09-24 17:17:00,71.1,53.6,29.99,East,79,0.0,6.0,54,0.00,,,0.01,meteohub,2013-09-24 22:17:00,
2013-09-24 17:22:00,70.9,54.0,29.99,East,90,0.0,6.0,55,0.00,,,0.01,meteohub,2013-09-24 22:22:00,
2013-09-24 17:27:00,70.5,52.5,29.99,ENE,62,0.0,7.0,53,0.00,,,0.01,meteohub,2013-09-24 22:27:00,
2013-09-24 17:32:00,70.3,52.3,29.99,ENE,66,0.0,7.0,53,0.00,,,0.01,meteohub,2013-09-24 22:32:00,
2013-09-24 17:37:00,70.3,52.9,29.99,ENE,66,0.0,7.0,54,0.00,,,0.01,meteohub,2013-09-24 22:37:00,
2013-09-24 17:42:00,70.2,53.2,29.99,ENE,66,0.0,6.0,55,0.00,,,0.01,meteohub,2013-09-24 22:42:00,
2013-09-24 17:47:00,70.0,53.1,29.99,ENE,66,0.0,6.0,55,0.00,,,0.01,meteohub,2013-09-24 22:47:00,
2013-09-24 17:52:00,69.8,53.4,29.99,ENE,66,0.0,0.0,56,0.00,,,0.01,meteohub,2013-09-24 22:52:00,
2013-09-24 17:57:00,69.6,53.2,29.99,ENE,66,0.0,0.0,56,0.00,,,0.01,meteohub,2013-09-24 22:57:00,
2013-09-24 18:02:00,69.3,53.4,29.99,ENE,66,0.0,0.0,57,0.00,,,0.01,meteohub,2013-09-24 23:02:00,
2013-09-24 18:07:00,69.1,53.2,29.99,ENE,66,0.0,0.0,57,0.00,,,0.01,meteohub,2013-09-24 23:07:00,
2013-09-24 18:12:00,68.7,53.4,29.99,ENE,66,0.0,0.0,58,0.00,,,0.01,meteohub,2013-09-24 23:12:00,
2013-09-24 18:17:00,68.5,53.2,29.99,ENE,66,0.0,0.0,58,0.00,,,0.01,meteohub,2013-09-24 23:17:00,
2013-09-24 18:22:00,68.2,53.2,29.99,ENE,66,0.0,0.0,59,0.00,,,0.01,meteohub,2013-09-24 23:22:00,
2013-09-24 18:27:00,67.8,53.4,29.99,ENE,66,0.0,0.0,60,0.00,,,0.01,meteohub,2013-09-24 23:27:00,
2013-09-24 18:32:00,67.6,53.2,29.99,ENE,66,0.0,0.0,60,0.00,,,0.01,meteohub,2013-09-24 23:32:00,
2013-09-24 18:37:00,67.5,53.1,29.99,ENE,66,0.0,0.0,60,0.00,,,0.01,meteohub,2013-09-24 23:37:00,
2013-09-24 18:42:00,67.3,53.4,29.99,ENE,66,0.0,0.0,61,0.00,,,0.01,meteohub,2013-09-24 23:42:00,
2013-09-24 18:47:00,66.9,53.4,29.99,ENE,66,0.0,0.0,62,0.00,,,0.01,meteohub,2013-09-24 23:47:00,
2013-09-24 18:52:00,66.4,53.4,29.99,ENE,66,0.0,0.0,63,0.00,,,0.01,meteohub,2013-09-24 23:52:00,
2013-09-24 18:57:00,66.0,53.4,29.99,ENE,66,0.0,0.0,64,0.00,,,0.01,meteohub,2013-09-24 23:57:00,
2013-09-24 19:02:00,65.8,53.8,29.99,ENE,66,0.0,0.0,65,0.00,,,0.01,meteohub,2013-09-25 00:02:00,
2013-09-24 19:07:00,65.7,53.6,29.99,ENE,66,0.0,0.0,65,0.00,,,0.00,meteohub,2013-09-25 00:07:00,
2013-09-24 19:12:00,65.7,53.6,29.99,ENE,66,0.0,0.0,65,0.00,,,0.00,meteohub,2013-09-25 00:12:00,
2013-09-24 19:17:00,65.5,53.1,29.99,ENE,66,0.0,0.0,64,0.00,,,0.00,meteohub,2013-09-25 00:17:00,
2013-09-24 19:22:00,65.5,53.1,29.99,ENE,66,0.0,0.0,64,0.00,,,0.00,meteohub,2013-09-25 00:22:00,
2013-09-24 19:27:00,65.3,53.2,29.99,ENE,66,0.0,0.0,65,0.00,,,0.00,meteohub,2013-09-25 00:27:00,
2013-09-24 19:32:00,65.1,53.1,30.00,ENE,66,0.0,0.0,65,0.00,,,0.00,meteohub,2013-09-25 00:32:00,
2013-09-24 19:37:00,64.6,53.8,30.00,ENE,66,0.0,0.0,68,0.00,,,0.00,meteohub,2013-09-25 00:37:00,
2013-09-24 19:42:00,63.7,53.8,30.00,ENE,66,0.0,0.0,70,0.00,,,0.00,meteohub,2013-09-25 00:42:00,
2013-09-24 19:47:00,63.1,53.6,30.00,ENE,66,0.0,0.0,71,0.00,,,0.00,meteohub,2013-09-25 00:47:00,
2013-09-24 19:52:00,63.1,53.2,30.00,ENE,66,0.0,0.0,70,0.00,,,0.00,meteohub,2013-09-25 00:52:00,
2013-09-24 19:57:00,63.1,53.6,30.00,ENE,66,0.0,0.0,71,0.00,,,0.00,meteohub,2013-09-25 00:57:00,
2013-09-24 20:02:00,62.6,53.8,30.00,ENE,66,0.0,0.0,73,0.00,,,0.00,meteohub,2013-09-25 01:02:00,
2013-09-24 20:07:00,61.9,53.8,30.00,ENE,66,0.0,0.0,75,0.00,,,0.00,meteohub,2013-09-25 01:07:00,
2013-09-24 20:12:00,61.5,54.0,30.00,ENE,66,0.0,0.0,76,0.00,,,0.00,meteohub,2013-09-25 01:12:00,
2013-09-24 20:17:00,61.2,54.0,30.00,ENE,66,0.0,0.0,77,0.00,,,0.00,meteohub,2013-09-25 01:17:00,
2013-09-24 20:22:00,61.0,53.8,30.00,ENE,66,0.0,0.0,77,0.00,,,0.00,meteohub,2013-09-25 01:22:00,
2013-09-24 20:27:00,60.6,53.8,30.01,ENE,66,0.0,0.0,78,0.00,,,0.00,meteohub,2013-09-25 01:27:00,
2013-09-24 20:32:00,60.3,53.8,30.00,ENE,66,0.0,0.0,79,0.00,,,0.00,meteohub,2013-09-25 01:32:00,
2013-09-24 20:37:00,60.3,53.8,30.00,ENE,66,0.0,0.0,79,0.00,,,0.00,meteohub,2013-09-25 01:37:00,
2013-09-24 20:42:00,60.3,53.8,30.01,ENE,66,0.0,0.0,79,0.00,,,0.00,meteohub,2013-09-25 01:42:00,
2013-09-24 20:47:00,60.3,53.4,30.00,ENE,66,0.0,0.0,78,0.00,,,0.00,meteohub,2013-09-25 01:47:00,
2013-09-24 20:52:00,60.3,53.4,30.00,ENE,66,0.0,0.0,78,0.00,,,0.00,meteohub,2013-09-25 01:52:00,
2013-09-24 20:57:00,60.4,53.2,30.00,ENE,66,0.0,0.0,77,0.00,,,0.00,meteohub,2013-09-25 01:57:00,
2013-09-24 21:02:00,60.4,53.2,30.01,ENE,66,0.0,0.0,77,0.00,,,0.00,meteohub,2013-09-25 02:02:00,
2013-09-24 21:07:00,60.3,53.4,30.01,ENE,66,0.0,0.0,78,0.00,,,0.00,meteohub,2013-09-25 02:07:00,
2013-09-24 21:12:00,59.9,53.1,30.01,ENE,66,0.0,0.0,78,0.00,,,0.00,meteohub,2013-09-25 02:12:00,
2013-09-24 21:17:00,59.7,53.2,30.01,ENE,66,0.0,0.0,79,0.00,,,0.00,meteohub,2013-09-25 02:17:00,
2013-09-24 21:22:00,59.5,53.1,30.01,ENE,66,0.0,0.0,79,0.00,,,0.00,meteohub,2013-09-25 02:22:00,
2013-09-24 21:27:00,59.4,52.9,30.01,ENE,66,0.0,0.0,79,0.00,,,0.00,meteohub,2013-09-25 02:27:00,
2013-09-24 21:32:00,59.2,53.1,30.01,ENE,66,0.0,0.0,80,0.00,,,0.00,meteohub,2013-09-25 02:32:00,
2013-09-24 21:37:00,58.8,52.7,30.01,ENE,66,0.0,0.0,80,0.00,,,0.00,meteohub,2013-09-25 02:37:00,
2013-09-24 21:42:00,58.6,52.5,30.01,ENE,66,0.0,0.0,80,0.00,,,0.00,meteohub,2013-09-25 02:42:00,
2013-09-24 21:47:00,58.6,52.5,30.01,ENE,66,0.0,0.0,80,0.00,,,0.00,meteohub,2013-09-25 02:47:00,
2013-09-24 21:52:00,58.6,52.5,30.01,ENE,66,0.0,0.0,80,0.00,,,0.00,meteohub,2013-09-25 02:52:00,
2013-09-24 21:57:00,58.6,52.2,30.01,ENE,66,0.0,0.0,79,0.00,,,0.00,meteohub,2013-09-25 02:57:00,
2013-09-24 22:02:00,58.6,52.2,30.01,ENE,66,0.0,0.0,79,0.00,,,0.00,meteohub,2013-09-25 03:02:00,
2013-09-24 22:07:00,58.5,52.0,30.01,ENE,66,0.0,0.0,79,0.00,,,0.00,meteohub,2013-09-25 03:07:00,
2013-09-24 22:12:00,58.6,52.2,30.01,ENE,66,0.0,0.0,79,0.00,,,0.00,meteohub,2013-09-25 03:12:00,
2013-09-24 22:17:00,58.6,51.8,30.01,ENE,66,0.0,0.0,78,0.00,,,0.00,meteohub,2013-09-25 03:17:00,
2013-09-24 22:22:00,58.1,51.6,30.01,ENE,66,0.0,0.0,79,0.00,,,0.00,meteohub,2013-09-25 03:22:00,
2013-09-24 22:27:00,57.6,51.8,30.01,ENE,66,0.0,0.0,81,0.00,,,0.00,meteohub,2013-09-25 03:27:00,
2013-09-24 22:32:00,57.0,51.6,30.02,ENE,66,0.0,0.0,82,0.00,,,0.00,meteohub,2013-09-25 03:32:00,
2013-09-24 22:37:00,56.5,51.4,30.01,ENE,66,0.0,0.0,83,0.00,,,0.00,meteohub,2013-09-25 03:37:00,
2013-09-24 22:42:00,56.5,51.4,30.01,ENE,66,0.0,0.0,83,0.00,,,0.00,meteohub,2013-09-25 03:42:00,
2013-09-24 22:47:00,56.5,51.4,30.02,ENE,66,0.0,0.0,83,0.00,,,0.00,meteohub,2013-09-25 03:47:00,
2013-09-24 22:52:00,56.3,51.3,30.02,ENE,66,0.0,0.0,83,0.00,,,0.00,meteohub,2013-09-25 03:52:00,
2013-09-24 22:57:00,56.1,51.1,30.02,ENE,66,0.0,0.0,83,0.00,,,0.00,meteohub,2013-09-25 03:57:00,
2013-09-24 23:02:00,55.9,51.3,30.02,ENE,66,0.0,0.0,84,0.00,,,0.00,meteohub,2013-09-25 04:02:00,
2013-09-24 23:07:00,55.9,50.9,30.02,ENE,66,0.0,0.0,83,0.00,,,0.00,meteohub,2013-09-25 04:07:00,
2013-09-24 23:12:00,55.9,50.9,30.02,ENE,66,0.0,0.0,83,0.00,,,0.00,meteohub,2013-09-25 04:12:00,
2013-09-24 23:17:00,55.9,50.9,30.02,ENE,66,0.0,0.0,83,0.00,,,0.00,meteohub,2013-09-25 04:17:00,
2013-09-24 23:22:00,55.8,50.7,30.02,ENE,66,0.0,0.0,83,0.00,,,0.00,meteohub,2013-09-25 04:22:00,
2013-09-24 23:27:00,55.6,50.9,30.03,ENE,66,0.0,0.0,84,0.00,,,0.00,meteohub,2013-09-25 04:27:00,
2013-09-24 23:32:00,55.2,50.5,30.03,ENE,66,0.0,0.0,84,0.00,,,0.00,meteohub,2013-09-25 04:32:00,
2013-09-24 23:37:00,55.0,50.5,30.03,ENE,66,0.0,0.0,85,0.00,,,0.00,meteohub,2013-09-25 04:37:00,
2013-09-24 23:42:00,54.9,50.4,30.03,ENE,66,0.0,0.0,85,0.00,,,0.00,meteohub,2013-09-25 04:42:00,
2013-09-24 23:47:00,54.9,50.7,30.03,ENE,66,0.0,0.0,86,0.00,,,0.00,meteohub,2013-09-25 04:47:00,
2013-09-24 23:52:00,54.7,50.5,30.03,ENE,66,0.0,0.0,86,0.00,,,0.00,meteohub,2013-09-25 04:52:00,
2013-09-24 23:57:00,54.5,50.4,30.03,ENE,66,0.0,0.0,86,0.00,,,0.00,meteohub,2013-09-25 04:57:00,